createdAt,value
2023-09-25T00:01:44.574Z,22.00
2023-09-25T00:04:11.679Z,21.90
2023-09-25T00:06:38.554Z,21.90
2023-09-25T00:09:06.878Z,22.00
2023-09-25T00:11:33.773Z,21.90
2023-09-25T00:14:00.557Z,22.00
2023-09-25T00:16:28.352Z,21.90
2023-09-25T00:18:55.371Z,22.00
2023-09-25T00:21:22.358Z,21.90
2023-09-25T00:23:49.398Z,21.90
2023-09-25T00:26:17.526Z,21.90
2023-09-25T00:28:44.224Z,21.90
2023-09-25T00:31:10.932Z,21.90
2023-09-25T00:33:37.714Z,21.90
2023-09-25T00:36:04.922Z,21.90
2023-09-25T00:38:32.713Z,21.90
2023-09-25T00:40:59.516Z,21.90
2023-09-25T00:43:26.184Z,21.90
2023-09-25T00:45:53.292Z,21.90
2023-09-25T00:48:27.428Z,21.90
2023-09-25T00:51:00.011Z,21.90
2023-09-25T00:53:27.888Z,21.90
2023-09-25T00:55:55.995Z,21.90
2023-09-25T00:58:23.967Z,21.90
2023-09-25T01:00:51.018Z,21.90
2023-09-25T01:03:17.770Z,21.90
2023-09-25T01:05:44.515Z,21.90
2023-09-25T01:08:11.818Z,21.90
2023-09-25T01:10:39.239Z,21.90
2023-09-25T01:13:06.414Z,21.90
2023-09-25T01:15:33.404Z,21.90
2023-09-25T01:18:00.446Z,21.90
2023-09-25T01:20:27.290Z,21.90
2023-09-25T01:22:54.612Z,21.90
2023-09-25T01:25:24.463Z,21.90
2023-09-25T01:27:51.573Z,21.90
2023-09-25T01:30:19.520Z,21.90
2023-09-25T01:32:47.335Z,21.90
2023-09-25T01:35:17.386Z,21.90
2023-09-25T01:37:46.151Z,21.90
2023-09-25T01:40:14.191Z,21.90
2023-09-25T01:42:41.801Z,21.90
2023-09-25T01:45:12.344Z,21.90
2023-09-25T01:47:40.909Z,21.90
2023-09-25T01:50:11.171Z,21.90
2023-09-25T01:52:38.217Z,21.90
2023-09-25T01:55:05.189Z,21.90
2023-09-25T01:57:35.648Z,21.90
2023-09-25T02:00:08.007Z,21.80
2023-09-25T02:02:34.831Z,21.90
2023-09-25T02:05:01.811Z,21.90
2023-09-25T02:07:28.974Z,21.80
2023-09-25T02:09:55.780Z,21.80
2023-09-25T02:12:22.718Z,21.80
2023-09-25T02:14:50.219Z,21.80
2023-09-25T02:17:16.869Z,21.80
2023-09-25T02:19:43.541Z,21.80
2023-09-25T02:22:12.346Z,21.80
2023-09-25T02:24:40.539Z,21.80
2023-09-25T02:27:07.511Z,21.70
2023-09-25T02:29:34.212Z,21.70
2023-09-25T02:32:00.888Z,21.80
2023-09-25T02:34:27.588Z,21.80
2023-09-25T02:36:54.296Z,21.80
2023-09-25T02:39:21.074Z,21.70
2023-09-25T02:41:47.796Z,21.70
2023-09-25T02:44:14.510Z,21.70
2023-09-25T02:46:41.196Z,21.80
2023-09-25T02:49:08.008Z,21.70
2023-09-25T02:51:34.765Z,21.70
2023-09-25T02:54:01.523Z,21.70
2023-09-25T02:56:28.261Z,21.70
2023-09-25T02:58:54.986Z,21.70
2023-09-25T03:01:21.723Z,21.70
2023-09-25T03:03:48.500Z,21.70
2023-09-25T03:06:15.225Z,21.70
2023-09-25T03:08:41.882Z,21.70
2023-09-25T03:11:08.593Z,21.70
2023-09-25T03:13:35.350Z,21.70
2023-09-25T03:16:02.066Z,21.70
2023-09-25T03:18:28.884Z,21.70
2023-09-25T03:20:55.557Z,21.70
2023-09-25T03:23:22.475Z,21.70
2023-09-25T03:25:49.252Z,21.70
2023-09-25T03:28:15.922Z,21.70
2023-09-25T03:30:42.611Z,21.70
2023-09-25T03:33:11.135Z,21.70
2023-09-25T03:35:38.960Z,21.70
2023-09-25T03:38:05.679Z,21.70
2023-09-25T03:40:32.386Z,21.70
2023-09-25T03:42:58.996Z,21.70
2023-09-25T03:45:25.927Z,21.70
2023-09-25T03:47:52.783Z,21.70
2023-09-25T03:50:19.486Z,21.70
2023-09-25T03:52:46.109Z,21.70
2023-09-25T03:55:12.935Z,21.70
2023-09-25T03:57:39.689Z,21.70
2023-09-25T04:00:07.935Z,21.70
2023-09-25T04:02:34.758Z,21.70
2023-09-25T04:05:01.504Z,21.70
2023-09-25T04:07:28.379Z,21.70
2023-09-25T04:09:55.733Z,21.70
2023-09-25T04:12:22.460Z,21.70
2023-09-25T04:14:49.229Z,21.70
2023-09-25T04:17:16.778Z,21.70
2023-09-25T04:19:45.685Z,21.70
2023-09-25T04:22:12.564Z,21.70
2023-09-25T04:24:39.357Z,21.70
2023-09-25T04:27:06.288Z,21.70
2023-09-25T04:29:33.151Z,21.70
2023-09-25T04:32:00.080Z,21.60
2023-09-25T04:34:26.986Z,21.70
2023-09-25T04:36:53.929Z,21.70
2023-09-25T04:39:21.510Z,21.70
2023-09-25T04:41:48.846Z,21.60
2023-09-25T04:44:15.646Z,21.60
2023-09-25T04:46:42.426Z,21.60
2023-09-25T04:49:09.601Z,21.60
2023-09-25T04:51:36.386Z,21.60
2023-09-25T04:54:04.397Z,21.60
2023-09-25T04:56:31.199Z,21.60
2023-09-25T04:58:58.768Z,21.60
2023-09-25T05:01:25.678Z,21.60
2023-09-25T05:03:52.607Z,21.60
2023-09-25T05:06:20.656Z,21.60
2023-09-25T05:08:47.747Z,21.60
2023-09-25T05:11:14.724Z,21.60
2023-09-25T05:13:41.365Z,21.60
2023-09-25T05:16:08.165Z,21.60
2023-09-25T05:18:35.002Z,21.60
2023-09-25T05:21:01.789Z,21.60
2023-09-25T05:23:28.414Z,21.60
2023-09-25T05:25:59.846Z,21.60
2023-09-25T05:28:26.394Z,21.60
2023-09-25T05:30:56.332Z,21.60
2023-09-25T05:33:23.958Z,21.50
2023-09-25T05:35:52.592Z,21.50
2023-09-25T05:38:19.732Z,21.50
2023-09-25T05:40:47.399Z,21.50
2023-09-25T05:43:14.103Z,21.50
2023-09-25T05:45:40.812Z,21.50
2023-09-25T05:48:07.759Z,21.50
2023-09-25T05:50:35.299Z,21.60
2023-09-25T05:53:02.927Z,21.60
2023-09-25T05:55:29.636Z,21.50
2023-09-25T05:57:56.899Z,21.50
2023-09-25T06:00:24.267Z,21.50
2023-09-25T06:02:51.976Z,21.60
2023-09-25T06:05:19.221Z,21.60
2023-09-25T06:07:46.528Z,21.60
2023-09-25T06:10:13.637Z,21.60
2023-09-25T06:12:41.000Z,21.60
2023-09-25T06:15:11.476Z,21.60
2023-09-25T06:17:40.059Z,21.60
2023-09-25T06:20:14.710Z,21.60
2023-09-25T06:22:41.671Z,21.60
2023-09-25T06:25:12.746Z,21.60
2023-09-25T06:27:41.269Z,21.60
2023-09-25T06:30:10.458Z,21.60
2023-09-25T06:32:37.831Z,21.60
2023-09-25T06:35:05.959Z,21.50
2023-09-25T06:37:32.986Z,21.60
2023-09-25T06:39:59.675Z,21.60
2023-09-25T06:42:26.546Z,21.60
2023-09-25T06:44:53.940Z,21.60
2023-09-25T06:47:21.117Z,21.60
2023-09-25T06:49:47.784Z,21.60
2023-09-25T06:52:14.411Z,21.60
2023-09-25T06:54:41.131Z,21.60
2023-09-25T06:57:07.816Z,21.60
2023-09-25T06:59:35.329Z,21.60
2023-09-25T07:02:02.115Z,21.60
2023-09-25T07:04:29.184Z,21.60
2023-09-25T07:06:56.206Z,21.60
2023-09-25T07:09:23.844Z,21.60
2023-09-25T07:11:51.460Z,21.60
2023-09-25T07:14:18.150Z,21.60
2023-09-25T07:16:44.849Z,21.60
2023-09-25T07:19:12.637Z,21.60
2023-09-25T07:21:40.998Z,21.60
2023-09-25T07:24:08.986Z,21.60
2023-09-25T07:26:35.770Z,21.70
2023-09-25T07:29:02.966Z,21.70
2023-09-25T07:31:29.773Z,21.60
2023-09-25T07:33:58.314Z,21.60
2023-09-25T07:36:25.598Z,21.70
2023-09-25T07:38:53.082Z,21.70
2023-09-25T07:41:19.925Z,21.70
2023-09-25T07:43:57.758Z,21.70
2023-09-25T07:46:26.919Z,21.70
2023-09-25T07:48:54.761Z,21.70
2023-09-25T07:51:26.124Z,21.70
2023-09-25T07:53:59.714Z,21.70
2023-09-25T07:56:27.048Z,21.70
2023-09-25T07:58:56.661Z,21.70
2023-09-25T08:01:30.641Z,21.70
2023-09-25T08:03:58.578Z,21.70
2023-09-25T08:06:25.928Z,21.70
2023-09-25T08:08:58.290Z,21.70
2023-09-25T08:11:25.666Z,21.70
2023-09-25T08:13:54.451Z,21.70
2023-09-25T08:16:23.570Z,21.70
2023-09-25T08:18:51.254Z,21.70
2023-09-25T08:21:18.253Z,21.70
2023-09-25T08:23:45.096Z,21.70
2023-09-25T08:26:11.901Z,21.70
2023-09-25T08:28:39.080Z,21.70
2023-09-25T08:31:05.937Z,21.70
2023-09-25T08:33:32.953Z,21.70
2023-09-25T08:35:59.675Z,21.70
2023-09-25T08:38:26.396Z,21.70
2023-09-25T08:40:53.508Z,21.80
2023-09-25T08:43:23.140Z,21.80
2023-09-25T08:45:51.787Z,21.80
2023-09-25T08:48:19.215Z,21.90
2023-09-25T08:50:47.393Z,21.90
2023-09-25T08:53:14.469Z,21.90
2023-09-25T08:55:43.776Z,21.90
2023-09-25T08:58:11.638Z,21.90
2023-09-25T09:00:40.122Z,21.90
2023-09-25T09:03:07.561Z,21.90
2023-09-25T09:05:34.490Z,21.90
2023-09-25T09:08:02.138Z,21.90
2023-09-25T09:10:37.499Z,22.00
2023-09-25T09:13:14.329Z,22.00
2023-09-25T09:15:42.469Z,22.00
2023-09-25T09:18:30.461Z,22.10
2023-09-25T09:20:57.590Z,22.10
2023-09-25T09:23:44.340Z,22.10
2023-09-25T09:26:15.398Z,22.10
2023-09-25T09:28:44.269Z,22.20
2023-09-25T09:31:12.398Z,22.20
2023-09-25T09:33:42.873Z,22.20
2023-09-25T09:36:11.506Z,22.20
2023-09-25T09:38:40.718Z,22.20
2023-09-25T09:41:08.576Z,22.30
2023-09-25T09:43:35.600Z,22.20
2023-09-25T09:46:05.148Z,22.20
2023-09-25T09:48:33.113Z,22.20
2023-09-25T09:51:01.772Z,22.10
2023-09-25T09:53:32.393Z,22.10
2023-09-25T09:55:59.436Z,22.10
2023-09-25T09:58:28.891Z,22.10
2023-09-25T10:01:01.360Z,22.10
2023-09-25T10:03:30.663Z,22.10
2023-09-25T10:05:58.102Z,22.10
2023-09-25T10:08:26.379Z,22.20
2023-09-25T10:10:53.565Z,22.20
2023-09-25T10:13:29.932Z,22.20
2023-09-25T10:16:03.245Z,22.20
2023-09-25T10:18:31.906Z,22.30
2023-09-25T10:21:10.391Z,22.30
2023-09-25T10:23:50.658Z,22.20
2023-09-25T10:26:20.409Z,22.30
2023-09-25T10:29:13.966Z,22.30
2023-09-25T10:31:48.818Z,22.40
2023-09-25T10:34:16.033Z,22.50
2023-09-25T10:36:45.505Z,22.50
2023-09-25T10:39:16.805Z,22.50
2023-09-25T10:41:46.640Z,22.50
2023-09-25T10:44:14.232Z,22.50
2023-09-25T10:46:41.742Z,22.50
2023-09-25T10:49:12.100Z,22.60
2023-09-25T10:51:39.560Z,22.50
2023-09-25T10:54:06.706Z,22.60
2023-09-25T10:56:34.266Z,22.60
2023-09-25T10:59:02.346Z,22.60
2023-09-25T11:01:30.802Z,22.60
2023-09-25T11:04:01.101Z,22.60
2023-09-25T11:06:29.408Z,22.60
2023-09-25T11:09:12.809Z,22.60
2023-09-25T11:14:08.962Z,22.60
2023-09-25T11:16:35.863Z,22.60
2023-09-25T11:19:12.832Z,22.60
2023-09-25T11:21:41.308Z,22.60
2023-09-25T11:24:09.560Z,22.60
2023-09-25T11:26:40.723Z,22.60
2023-09-25T11:29:12.017Z,22.60
2023-09-25T11:31:59.102Z,22.60
2023-09-25T11:34:26.534Z,22.70
2023-09-25T11:36:53.445Z,22.70
2023-09-25T11:39:20.307Z,22.70
2023-09-25T11:41:47.430Z,22.80
2023-09-25T11:44:15.266Z,22.80
2023-09-25T11:46:43.855Z,22.80
2023-09-25T11:49:10.924Z,22.80
2023-09-25T11:51:37.807Z,22.80
2023-09-25T11:54:06.143Z,22.80
2023-09-25T11:56:34.039Z,22.80
2023-09-25T11:59:01.543Z,22.80
2023-09-25T12:01:29.289Z,22.90
2023-09-25T12:03:56.871Z,22.90
2023-09-25T12:06:27.938Z,22.90
2023-09-25T12:08:55.581Z,22.90
2023-09-25T12:11:22.582Z,22.90
2023-09-25T12:13:50.893Z,23.00
2023-09-25T12:16:18.833Z,23.00
2023-09-25T12:18:46.314Z,23.00
2023-09-25T12:21:13.256Z,23.00
2023-09-25T12:23:39.990Z,23.00
2023-09-25T12:26:07.751Z,23.00
2023-09-25T12:28:35.922Z,23.00
2023-09-25T12:31:03.006Z,23.00
2023-09-25T12:33:29.887Z,22.90
2023-09-25T12:35:56.628Z,22.90
2023-09-25T12:38:23.443Z,22.90
2023-09-25T12:40:50.432Z,22.90
2023-09-25T12:43:17.235Z,22.90
2023-09-25T12:45:44.232Z,22.90
2023-09-25T12:48:11.305Z,22.90
2023-09-25T12:50:38.197Z,22.90
2023-09-25T12:53:05.896Z,22.90
2023-09-25T12:55:34.616Z,22.90
2023-09-25T12:58:02.729Z,22.90
2023-09-25T13:00:29.593Z,22.90
2023-09-25T13:02:56.465Z,22.90
2023-09-25T13:05:23.336Z,23.00
2023-09-25T13:07:51.111Z,23.10
2023-09-25T13:10:18.236Z,23.20
2023-09-25T13:12:45.658Z,23.20
2023-09-25T13:15:13.509Z,23.20
2023-09-25T13:17:40.384Z,23.20
2023-09-25T13:20:09.020Z,23.30
2023-09-25T13:22:38.471Z,23.30
2023-09-25T13:25:06.579Z,23.30
2023-09-25T13:27:34.004Z,23.30
2023-09-25T13:30:00.968Z,23.30
2023-09-25T13:32:27.873Z,23.30
2023-09-25T13:37:26.714Z,23.30
2023-09-25T13:39:55.651Z,23.40
2023-09-25T13:42:22.407Z,23.40
2023-09-25T13:44:49.213Z,23.40
2023-09-25T13:47:16.023Z,23.40
2023-09-25T13:49:45.025Z,23.40
2023-09-25T13:52:12.326Z,23.40
2023-09-25T13:54:39.226Z,23.30
2023-09-25T13:57:06.041Z,23.30
2023-09-25T13:59:34.163Z,23.30
2023-09-25T14:02:00.990Z,23.30
2023-09-25T14:04:28.991Z,23.30
2023-09-25T14:06:56.526Z,23.30
2023-09-25T14:09:25.840Z,23.20
2023-09-25T14:11:54.333Z,23.20
2023-09-25T14:14:22.750Z,23.20
2023-09-25T14:16:50.632Z,23.20
2023-09-25T14:19:17.391Z,23.20
2023-09-25T14:21:44.232Z,23.10
2023-09-25T14:24:11.289Z,23.10
2023-09-25T14:26:38.508Z,23.10
2023-09-25T14:29:05.249Z,23.10
2023-09-25T14:31:32.062Z,23.10
2023-09-25T14:33:59.362Z,23.10
2023-09-25T14:36:27.291Z,23.10
2023-09-25T14:38:54.116Z,23.00
2023-09-25T14:41:20.866Z,23.00
2023-09-25T14:43:47.604Z,23.00
2023-09-25T14:46:14.612Z,23.00
2023-09-25T14:48:47.453Z,23.00
2023-09-25T14:51:17.160Z,23.00
2023-09-25T14:53:43.828Z,23.00
2023-09-25T14:56:13.037Z,23.00
2023-09-25T14:58:40.532Z,23.10
2023-09-25T15:01:08.159Z,23.10
2023-09-25T15:03:35.591Z,23.10
2023-09-25T15:06:02.642Z,23.10
2023-09-25T15:08:29.373Z,23.10
2023-09-25T15:10:57.124Z,23.10
2023-09-25T15:13:24.179Z,23.00
2023-09-25T15:15:51.009Z,23.00
2023-09-25T15:18:18.159Z,23.00
2023-09-25T15:20:45.285Z,23.00
2023-09-25T15:23:12.312Z,23.00
2023-09-25T15:25:39.486Z,23.00
2023-09-25T15:28:06.883Z,22.90
2023-09-25T15:30:33.983Z,22.90
2023-09-25T15:33:00.830Z,22.90
2023-09-25T15:35:28.122Z,22.90
2023-09-25T15:37:55.043Z,22.90
2023-09-25T15:40:24.449Z,22.90
2023-09-25T15:42:52.844Z,22.90
2023-09-25T15:45:20.542Z,22.90
2023-09-25T15:47:47.553Z,22.80
2023-09-25T15:50:14.966Z,22.80
2023-09-25T15:52:41.787Z,22.80
2023-09-25T15:55:09.071Z,22.80
2023-09-25T15:57:36.782Z,22.80
2023-09-25T16:00:07.022Z,22.80
2023-09-25T16:02:33.939Z,22.80
2023-09-25T16:05:00.828Z,22.80
2023-09-25T16:07:29.059Z,22.70
2023-09-25T16:09:56.357Z,22.70
2023-09-25T16:12:23.230Z,22.60
2023-09-25T16:14:50.186Z,22.60
2023-09-25T16:17:17.127Z,22.60
2023-09-25T16:19:43.993Z,22.60
2023-09-25T16:22:10.891Z,22.60
2023-09-25T16:24:37.824Z,22.60
2023-09-25T16:27:04.607Z,22.50
2023-09-25T16:29:31.601Z,22.50
2023-09-25T16:31:58.486Z,22.50
2023-09-25T16:34:25.310Z,22.50
2023-09-25T16:36:52.076Z,22.50
2023-09-25T16:39:18.869Z,22.50
2023-09-25T16:41:45.843Z,22.50
2023-09-25T16:44:12.672Z,22.50
2023-09-25T16:46:40.959Z,22.50
2023-09-25T16:49:08.240Z,22.50
2023-09-25T16:51:35.018Z,22.50
2023-09-25T16:54:01.967Z,22.50
2023-09-25T16:56:28.730Z,22.50
2023-09-25T16:58:55.877Z,22.50
2023-09-25T17:01:22.822Z,22.50
2023-09-25T17:03:49.929Z,22.50
2023-09-25T17:06:17.074Z,22.50
2023-09-25T17:08:43.795Z,22.50
2023-09-25T17:11:10.688Z,22.50
2023-09-25T17:13:37.453Z,22.50
2023-09-25T17:16:10.441Z,22.50
2023-09-25T17:18:37.494Z,22.50
2023-09-25T17:21:04.887Z,22.50
2023-09-25T17:23:31.816Z,22.50
2023-09-25T17:25:58.549Z,22.60
2023-09-25T17:28:25.268Z,22.60
2023-09-25T17:31:07.161Z,22.60
2023-09-25T17:33:35.797Z,22.60
2023-09-25T17:36:02.671Z,22.60
2023-09-25T17:38:32.071Z,22.60
2023-09-25T17:40:59.096Z,22.50
2023-09-25T17:43:26.841Z,22.50
2023-09-25T17:45:54.460Z,22.50
2023-09-25T17:48:21.697Z,22.50
2023-09-25T17:50:52.937Z,22.50
2023-09-25T17:53:20.230Z,22.50
2023-09-25T17:55:48.879Z,22.50
2023-09-25T17:58:29.581Z,22.50
2023-09-25T18:00:59.085Z,22.50
2023-09-25T18:03:26.205Z,22.50
2023-09-25T18:05:53.129Z,22.50
2023-09-25T18:08:20.306Z,22.50
2023-09-25T18:10:47.018Z,22.50
2023-09-25T18:13:13.922Z,22.50
2023-09-25T18:15:40.880Z,22.50
2023-09-25T18:18:08.651Z,22.50
2023-09-25T18:20:35.547Z,22.50
2023-09-25T18:23:02.296Z,22.50
2023-09-25T18:25:29.543Z,22.50
2023-09-25T18:27:56.271Z,22.50
2023-09-25T18:30:23.074Z,22.50
2023-09-25T18:32:49.840Z,22.50
2023-09-25T18:35:16.609Z,22.50
2023-09-25T18:37:43.838Z,22.50
2023-09-25T18:40:11.128Z,22.50
2023-09-25T18:42:39.808Z,22.50
2023-09-25T18:45:08.068Z,22.50
2023-09-25T18:47:36.295Z,22.50
2023-09-25T18:50:03.982Z,22.50
2023-09-25T18:52:34.882Z,22.50
2023-09-25T18:55:02.245Z,22.50
2023-09-25T18:57:29.004Z,22.50
2023-09-25T18:59:55.899Z,22.50
2023-09-25T19:02:22.636Z,22.50
2023-09-25T19:04:51.167Z,22.50
2023-09-25T19:07:20.364Z,22.50
2023-09-25T19:09:49.304Z,22.50
2023-09-25T19:12:16.076Z,22.50
2023-09-25T19:14:42.984Z,22.50
2023-09-25T19:17:09.916Z,22.50
2023-09-25T19:19:38.729Z,22.50
2023-09-25T19:22:06.177Z,22.50
2023-09-25T19:24:33.021Z,22.50
2023-09-25T19:26:59.830Z,22.50
2023-09-25T19:29:28.247Z,22.40
2023-09-25T19:31:55.104Z,22.40
2023-09-25T19:34:22.213Z,22.40
2023-09-25T19:36:49.123Z,22.40
2023-09-25T19:39:15.897Z,22.40
2023-09-25T19:41:42.687Z,22.40
2023-09-25T19:44:09.440Z,22.40
2023-09-25T19:46:39.273Z,22.40
2023-09-25T19:49:06.439Z,22.40
2023-09-25T19:51:36.426Z,22.40
2023-09-25T19:54:04.175Z,22.40
2023-09-25T19:56:31.445Z,22.40
2023-09-25T19:58:58.217Z,22.40
2023-09-25T20:01:25.033Z,22.40
2023-09-25T20:03:52.341Z,22.50
2023-09-25T20:06:19.354Z,22.50
2023-09-25T20:08:46.239Z,22.50
2023-09-25T20:11:13.120Z,22.50
2023-09-25T20:13:39.909Z,22.50
2023-09-25T20:16:07.395Z,22.50
2023-09-25T20:18:34.245Z,22.50
2023-09-25T20:21:01.024Z,22.40
2023-09-25T20:23:27.839Z,22.40
2023-09-25T20:25:55.120Z,22.40
2023-09-25T20:28:21.948Z,22.40
2023-09-25T20:30:48.934Z,22.40
2023-09-25T20:33:16.050Z,22.30
2023-09-25T20:35:42.844Z,22.30
2023-09-25T20:38:09.675Z,22.30
2023-09-25T20:40:36.481Z,22.40
2023-09-25T20:43:03.463Z,22.40
2023-09-25T20:45:30.407Z,22.30
2023-09-25T20:47:57.698Z,22.30
2023-09-25T20:50:28.090Z,22.30
2023-09-25T20:52:55.824Z,22.30
2023-09-25T20:55:23.447Z,22.30
2023-09-25T20:57:51.042Z,22.30
2023-09-25T21:00:18.530Z,22.30
2023-09-25T21:02:45.322Z,22.30
2023-09-25T21:05:13.289Z,22.30
2023-09-25T21:07:40.268Z,22.30
2023-09-25T21:10:07.580Z,22.30
2023-09-25T21:12:34.871Z,22.30
2023-09-25T21:15:01.894Z,22.30
2023-09-25T21:17:28.751Z,22.30
2023-09-25T21:19:55.576Z,22.30
2023-09-25T21:22:22.538Z,22.30
2023-09-25T21:24:50.275Z,22.30
2023-09-25T21:27:18.550Z,22.30
2023-09-25T21:29:45.619Z,22.30
2023-09-25T21:32:12.980Z,22.30
2023-09-25T21:34:39.797Z,22.30
2023-09-25T21:37:06.667Z,22.30
2023-09-25T21:39:33.531Z,22.30
2023-09-25T21:42:00.317Z,22.30
2023-09-25T21:44:29.365Z,22.30
2023-09-25T21:46:57.870Z,22.30
2023-09-25T21:49:24.810Z,22.30
2023-09-25T21:51:51.566Z,22.30
2023-09-25T21:54:18.406Z,22.30
2023-09-25T21:56:45.260Z,22.30
2023-09-25T21:59:12.033Z,22.30
2023-09-25T22:01:38.941Z,22.30
2023-09-25T22:04:07.015Z,22.30
2023-09-25T22:06:34.000Z,22.30
2023-09-25T22:09:00.811Z,22.20
2023-09-25T22:11:27.620Z,22.20
2023-09-25T22:13:55.649Z,22.20
2023-09-25T22:16:23.473Z,22.20
2023-09-25T22:18:50.623Z,22.20
2023-09-25T22:21:17.538Z,22.20
2023-09-25T22:23:45.603Z,22.20
2023-09-25T22:26:13.244Z,22.20
2023-09-25T22:28:40.310Z,22.20
2023-09-25T22:31:16.295Z,22.20
2023-09-25T22:33:47.542Z,22.20
2023-09-25T22:36:14.978Z,22.20
2023-09-25T22:38:41.815Z,22.20
2023-09-25T22:41:08.817Z,22.20
2023-09-25T22:43:35.582Z,22.30
2023-09-25T22:46:02.894Z,22.30
2023-09-25T22:48:31.557Z,22.30
2023-09-25T22:50:58.567Z,22.20
2023-09-25T22:53:25.364Z,22.20
2023-09-25T22:55:52.364Z,22.20
2023-09-25T22:58:19.283Z,22.20
2023-09-25T23:00:52.575Z,22.20
2023-09-25T23:03:20.139Z,22.20
2023-09-25T23:05:47.757Z,22.20
2023-09-25T23:08:14.805Z,22.20
2023-09-25T23:10:41.539Z,22.20
2023-09-25T23:13:08.421Z,22.20
2023-09-25T23:15:35.210Z,22.20
2023-09-25T23:18:02.029Z,22.20
2023-09-25T23:20:29.560Z,22.10
2023-09-25T23:22:56.745Z,22.20
2023-09-25T23:25:25.460Z,22.20
2023-09-25T23:27:52.360Z,22.10
2023-09-25T23:30:20.166Z,22.10
2023-09-25T23:32:49.866Z,22.20
2023-09-25T23:35:18.336Z,22.20
2023-09-25T23:37:47.582Z,22.20
2023-09-25T23:40:20.730Z,22.20
2023-09-25T23:42:47.958Z,22.20
2023-09-25T23:45:17.645Z,22.20
2023-09-25T23:47:46.715Z,22.20
2023-09-25T23:50:14.850Z,22.10
2023-09-25T23:52:42.664Z,22.10
2023-09-25T23:55:13.161Z,22.10
2023-09-25T23:57:40.760Z,22.10
